sensor_id;sensor_type;location;lat;lon;timestamp;temperature;humidity
49901;DHT22;35789;48.414;12.768;2023-07-20T00:00:00;17.9;99.9
49901;DHT22;35789;48.414;12.768;2023-07-20T00:05:00;17.8;99.9
49901;DHT22;35789;48.414;12.768;2023-07-20T00:10:00;17.8;99.9
49901;DHT22;35789;48.414;12.768;2023-07-20T00:15:00;17.8;99.9
49901;DHT22;35789;48.414;12.768;2023-07-20T00:20:00;17.8;99.9
49901;DHT22;35789;48.414;12.768;2023-07-20T00:25:00;17.8;99.9
49901;DHT22;35789;48.414;12.768;2023-07-20T00:30:00;17.8;99.9
49901;DHT22;35789;48.414;12.768;2023-07-20T00:35:00;17.8;99.9
49901;DHT22;35789;48.414;12.768;2023-07-20T00:40:00;17.7;99.9
49901;DHT22;35789;48.414;12.768;2023-07-20T00:45:00;17.7;99.9
49901;DHT22;35789;48.414;12.768;2023-07-20T00:50:00;17.7;99.9
49901;DHT22;35789;48.414;12.768;2023-07-20T00:55:00;17.8;99.9
49901;DHT22;35789;48.414;12.768;2023-07-20T01:00:00;17.7;99.9
49901;DHT22;35789;48.414;12.768;2023-07-20T01:05:00;17.6;99.9
49901;DHT22;35789;48.414;12.768;2023-07-20T01:10:01;17.7;99.9
49901;DHT22;35789;48.414;12.768;2023-07-20T01:15:00;17.7;99.9
49901;DHT22;35789;48.414;12.768;2023-07-20T01:20:00;17.7;99.9
49901;DHT22;35789;48.414;12.768;2023-07-20T01:25:07;17.8;99.9
49901;DHT22;35789;48.414;12.768;2023-07-20T01:30:03;17.9;99.9
49901;DHT22;35789;48.414;12.768;2023-07-20T01:35:00;17.8;99.9
49901;DHT22;35789;48.414;12.768;2023-07-20T01:40:00;17.8;99.9
49901;DHT22;35789;48.414;12.768;2023-07-20T01:45:00;17.7;99.9
49901;DHT22;35789;48.414;12.768;2023-07-20T01:50:00;17.7;99.9
49901;DHT22;35789;48.414;12.768;2023-07-20T01:55:00;17.8;99.9
49901;DHT22;35789;48.414;12.768;2023-07-20T02:00:00;17.8;99.9
49901;DHT22;35789;48.414;12.768;2023-07-20T02:05:00;17.8;99.9
49901;DHT22;35789;48.414;12.768;2023-07-20T02:10:00;17.7;99.9
49901;DHT22;35789;48.414;12.768;2023-07-20T02:15:00;17.7;99.9
49901;DHT22;35789;48.414;12.768;2023-07-20T02:20:00;17.6;99.9
49901;DHT22;35789;48.414;12.768;2023-07-20T02:25:00;17.5;99.9
49901;DHT22;35789;48.414;12.768;2023-07-20T02:30:00;17.5;99.9
49901;DHT22;35789;48.414;12.768;2023-07-20T02:35:00;17.5;99.9
49901;DHT22;35789;48.414;12.768;2023-07-20T02:40:00;17.6;99.9
49901;DHT22;35789;48.414;12.768;2023-07-20T02:45:01;17.6;99.9
49901;DHT22;35789;48.414;12.768;2023-07-20T02:50:00;17.6;99.9
49901;DHT22;35789;48.414;12.768;2023-07-20T02:55:00;17.6;99.9
49901;DHT22;35789;48.414;12.768;2023-07-20T03:00:00;17.6;99.9
49901;DHT22;35789;48.414;12.768;2023-07-20T03:05:00;17.6;99.9
49901;DHT22;35789;48.414;12.768;2023-07-20T03:10:00;17.6;99.9
49901;DHT22;35789;48.414;12.768;2023-07-20T03:15:00;17.6;99.9
49901;DHT22;35789;48.414;12.768;2023-07-20T03:20:00;17.6;99.9
49901;DHT22;35789;48.414;12.768;2023-07-20T03:25:00;17.6;99.9
49901;DHT22;35789;48.414;12.768;2023-07-20T03:30:00;17.7;99.9
49901;DHT22;35789;48.414;12.768;2023-07-20T03:35:00;17.7;99.9
49901;DHT22;35789;48.414;12.768;2023-07-20T03:40:00;17.8;99.9
49901;DHT22;35789;48.414;12.768;2023-07-20T03:45:00;17.9;99.9
49901;DHT22;35789;48.414;12.768;2023-07-20T03:50:00;17.9;99.9
49901;DHT22;35789;48.414;12.768;2023-07-20T03:55:00;18.0;99.9
49901;DHT22;35789;48.414;12.768;2023-07-20T04:00:00;18.1;99.9
49901;DHT22;35789;48.414;12.768;2023-07-20T04:05:00;18.1;99.9
49901;DHT22;35789;48.414;12.768;2023-07-20T04:10:00;18.0;99.9
49901;DHT22;35789;48.414;12.768;2023-07-20T04:15:00;17.9;99.9
49901;DHT22;35789;48.414;12.768;2023-07-20T04:20:00;17.8;99.9
49901;DHT22;35789;48.414;12.768;2023-07-20T04:25:00;17.7;99.9
49901;DHT22;35789;48.414;12.768;2023-07-20T04:30:00;17.7;99.9
49901;DHT22;35789;48.414;12.768;2023-07-20T04:35:00;17.7;99.9
49901;DHT22;35789;48.414;12.768;2023-07-20T04:40:00;17.8;99.9
49901;DHT22;35789;48.414;12.768;2023-07-20T04:45:00;17.7;99.9
49901;DHT22;35789;48.414;12.768;2023-07-20T04:50:00;17.8;99.9
49901;DHT22;35789;48.414;12.768;2023-07-20T04:55:00;17.9;99.9
49901;DHT22;35789;48.414;12.768;2023-07-20T05:00:00;17.9;99.9
49901;DHT22;35789;48.414;12.768;2023-07-20T05:05:00;17.9;99.9
49901;DHT22;35789;48.414;12.768;2023-07-20T05:10:00;18.0;99.9
49901;DHT22;35789;48.414;12.768;2023-07-20T05:15:00;18.0;99.9
49901;DHT22;35789;48.414;12.768;2023-07-20T05:20:00;18.0;99.9
49901;DHT22;35789;48.414;12.768;2023-07-20T05:25:00;18.0;99.9
49901;DHT22;35789;48.414;12.768;2023-07-20T05:30:00;18.1;99.9
49901;DHT22;35789;48.414;12.768;2023-07-20T05:35:00;18.1;99.9
49901;DHT22;35789;48.414;12.768;2023-07-20T05:40:00;18.2;99.9
49901;DHT22;35789;48.414;12.768;2023-07-20T05:45:00;18.3;99.9
49901;DHT22;35789;48.414;12.768;2023-07-20T05:50:00;18.3;99.9
49901;DHT22;35789;48.414;12.768;2023-07-20T05:55:00;18.5;99.4
49901;DHT22;35789;48.414;12.768;2023-07-20T06:00:00;18.6;98.1
49901;DHT22;35789;48.414;12.768;2023-07-20T06:05:00;18.7;98.0
49901;DHT22;35789;48.414;12.768;2023-07-20T06:10:00;18.6;98.4
49901;DHT22;35789;48.414;12.768;2023-07-20T06:15:01;18.8;96.6
49901;DHT22;35789;48.414;12.768;2023-07-20T06:20:00;18.8;96.5
49901;DHT22;35789;48.414;12.768;2023-07-20T06:25:00;18.9;95.3
49901;DHT22;35789;48.414;12.768;2023-07-20T06:30:00;18.9;95.2
49901;DHT22;35789;48.414;12.768;2023-07-20T06:35:00;19.0;94.7
49901;DHT22;35789;48.414;12.768;2023-07-20T06:40:00;19.0;94.6
49901;DHT22;35789;48.414;12.768;2023-07-20T06:45:00;19.1;94.6
49901;DHT22;35789;48.414;12.768;2023-07-20T06:50:00;19.2;94.0
49901;DHT22;35789;48.414;12.768;2023-07-20T06:55:00;19.4;94.2
49901;DHT22;35789;48.414;12.768;2023-07-20T07:00:00;19.5;93.6
49901;DHT22;35789;48.414;12.768;2023-07-20T07:05:00;19.6;93.5
49901;DHT22;35789;48.414;12.768;2023-07-20T07:10:00;19.7;93.3
49901;DHT22;35789;48.414;12.768;2023-07-20T07:15:00;19.8;93.8
49901;DHT22;35789;48.414;12.768;2023-07-20T07:20:00;20.0;92.5
49901;DHT22;35789;48.414;12.768;2023-07-20T07:25:00;20.0;93.0
49901;DHT22;35789;48.414;12.768;2023-07-20T07:30:00;20.0;92.4
49901;DHT22;35789;48.414;12.768;2023-07-20T07:35:00;20.1;91.7
49901;DHT22;35789;48.414;12.768;2023-07-20T07:40:00;20.3;92.2
49901;DHT22;35789;48.414;12.768;2023-07-20T07:45:00;20.5;91.5
49901;DHT22;35789;48.414;12.768;2023-07-20T07:50:00;20.7;92.3
49901;DHT22;35789;48.414;12.768;2023-07-20T07:55:00;20.8;90.9
49901;DHT22;35789;48.414;12.768;2023-07-20T08:00:00;20.9;90.7
49901;DHT22;35789;48.414;12.768;2023-07-20T08:05:00;21.1;90.7
49901;DHT22;35789;48.414;12.768;2023-07-20T08:10:00;21.2;91.2
49901;DHT22;35789;48.414;12.768;2023-07-20T08:15:00;21.3;87.9
49901;DHT22;35789;48.414;12.768;2023-07-20T08:20:00;21.1;90.5
49901;DHT22;35789;48.414;12.768;2023-07-20T08:25:00;21.1;90.3
49901;DHT22;35789;48.414;12.768;2023-07-20T08:30:00;21.1;89.1
49901;DHT22;35789;48.414;12.768;2023-07-20T08:35:00;21.0;90.8
49901;DHT22;35789;48.414;12.768;2023-07-20T08:40:00;21.0;90.1
49901;DHT22;35789;48.414;12.768;2023-07-20T08:45:00;21.1;88.9
49901;DHT22;35789;48.414;12.768;2023-07-20T08:50:00;21.2;89.5
49901;DHT22;35789;48.414;12.768;2023-07-20T08:55:00;21.4;85.7
49901;DHT22;35789;48.414;12.768;2023-07-20T09:00:00;21.6;86.1
49901;DHT22;35789;48.414;12.768;2023-07-20T09:05:00;21.9;85.6
49901;DHT22;35789;48.414;12.768;2023-07-20T09:10:00;21.9;83.5
49901;DHT22;35789;48.414;12.768;2023-07-20T09:15:00;21.7;85.2
49901;DHT22;35789;48.414;12.768;2023-07-20T09:20:01;21.7;83.4
49901;DHT22;35789;48.414;12.768;2023-07-20T09:25:00;21.8;82.8
49901;DHT22;35789;48.414;12.768;2023-07-20T09:30:00;21.8;81.2
49901;DHT22;35789;48.414;12.768;2023-07-20T09:35:00;21.9;80.8
49901;DHT22;35789;48.414;12.768;2023-07-20T09:40:00;21.9;79.6
49901;DHT22;35789;48.414;12.768;2023-07-20T09:50:00;22.0;82.9
49901;DHT22;35789;48.414;12.768;2023-07-20T09:55:00;22.4;81.4
49901;DHT22;35789;48.414;12.768;2023-07-20T10:00:00;22.6;79.8
49901;DHT22;35789;48.414;12.768;2023-07-20T10:05:02;22.6;78.8
49901;DHT22;35789;48.414;12.768;2023-07-20T10:10:01;22.6;78.8
49901;DHT22;35789;48.414;12.768;2023-07-20T10:15:04;22.8;80.0
49901;DHT22;35789;48.414;12.768;2023-07-20T10:20:00;22.9;77.8
49901;DHT22;35789;48.414;12.768;2023-07-20T10:25:00;23.0;80.5
49901;DHT22;35789;48.414;12.768;2023-07-20T10:30:00;23.2;76.6
49901;DHT22;35789;48.414;12.768;2023-07-20T10:35:00;23.6;77.0
49901;DHT22;35789;48.414;12.768;2023-07-20T10:40:08;23.8;79.2
49901;DHT22;35789;48.414;12.768;2023-07-20T10:45:00;24.0;77.1
49901;DHT22;35789;48.414;12.768;2023-07-20T10:50:01;24.1;74.0
49901;DHT22;35789;48.414;12.768;2023-07-20T10:55:09;24.1;73.8
49901;DHT22;35789;48.414;12.768;2023-07-20T11:00:08;24.5;72.0
49901;DHT22;35789;48.414;12.768;2023-07-20T11:05:00;24.7;73.7
49901;DHT22;35789;48.414;12.768;2023-07-20T11:10:09;25.1;73.6
49901;DHT22;35789;48.414;12.768;2023-07-20T11:15:00;25.4;70.5
49901;DHT22;35789;48.414;12.768;2023-07-20T11:20:00;25.3;69.1
49901;DHT22;35789;48.414;12.768;2023-07-20T11:25:00;25.2;68.4
49901;DHT22;35789;48.414;12.768;2023-07-20T11:30:00;24.9;71.0
49901;DHT22;35789;48.414;12.768;2023-07-20T11:35:00;24.8;70.6
49901;DHT22;35789;48.414;12.768;2023-07-20T11:40:00;25.2;72.3
49901;DHT22;35789;48.414;12.768;2023-07-20T11:45:01;26.5;70.3
49901;DHT22;35789;48.414;12.768;2023-07-20T11:50:02;27.5;68.7
49901;DHT22;35789;48.414;12.768;2023-07-20T11:55:00;26.4;66.7
49901;DHT22;35789;48.414;12.768;2023-07-20T12:00:00;26.5;68.4
49901;DHT22;35789;48.414;12.768;2023-07-20T12:05:00;26.3;68.4
49901;DHT22;35789;48.414;12.768;2023-07-20T12:10:03;26.3;67.4
49901;DHT22;35789;48.414;12.768;2023-07-20T12:20:00;27.1;70.6
49901;DHT22;35789;48.414;12.768;2023-07-20T12:25:00;26.9;68.3
49901;DHT22;35789;48.414;12.768;2023-07-20T12:30:00;26.5;69.9
49901;DHT22;35789;48.414;12.768;2023-07-20T12:35:00;26.1;67.6
49901;DHT22;35789;48.414;12.768;2023-07-20T12:40:00;25.6;67.1
49901;DHT22;35789;48.414;12.768;2023-07-20T12:45:00;25.4;71.1
49901;DHT22;35789;48.414;12.768;2023-07-20T12:50:00;25.5;71.2
49901;DHT22;35789;48.414;12.768;2023-07-20T12:55:00;25.5;67.5
49901;DHT22;35789;48.414;12.768;2023-07-20T13:00:00;25.4;67.1
49901;DHT22;35789;48.414;12.768;2023-07-20T13:05:00;25.4;69.4
49901;DHT22;35789;48.414;12.768;2023-07-20T13:10:00;25.2;72.0
49901;DHT22;35789;48.414;12.768;2023-07-20T13:15:01;25.2;71.9
49901;DHT22;35789;48.414;12.768;2023-07-20T13:20:00;25.3;68.0
49901;DHT22;35789;48.414;12.768;2023-07-20T13:25:00;25.3;70.0
49901;DHT22;35789;48.414;12.768;2023-07-20T13:30:00;25.3;68.4
49901;DHT22;35789;48.414;12.768;2023-07-20T13:35:00;25.2;70.2
49901;DHT22;35789;48.414;12.768;2023-07-20T13:40:00;25.4;68.5
49901;DHT22;35789;48.414;12.768;2023-07-20T13:45:00;25.4;68.8
49901;DHT22;35789;48.414;12.768;2023-07-20T13:50:00;25.3;69.7
49901;DHT22;35789;48.414;12.768;2023-07-20T13:55:00;25.1;70.5
49901;DHT22;35789;48.414;12.768;2023-07-20T14:00:00;24.9;73.1
49901;DHT22;35789;48.414;12.768;2023-07-20T14:05:00;25.0;72.1
49901;DHT22;35789;48.414;12.768;2023-07-20T14:10:00;25.0;71.2
49901;DHT22;35789;48.414;12.768;2023-07-20T14:15:00;25.0;70.8
49901;DHT22;35789;48.414;12.768;2023-07-20T14:20:00;25.1;70.2
49901;DHT22;35789;48.414;12.768;2023-07-20T14:25:00;25.1;69.5
49901;DHT22;35789;48.414;12.768;2023-07-20T14:30:00;24.7;72.0
49901;DHT22;35789;48.414;12.768;2023-07-20T14:35:00;24.7;69.3
49901;DHT22;35789;48.414;12.768;2023-07-20T14:40:00;24.7;68.1
49901;DHT22;35789;48.414;12.768;2023-07-20T14:45:00;24.7;68.5
49901;DHT22;35789;48.414;12.768;2023-07-20T14:50:00;24.8;69.4
49901;DHT22;35789;48.414;12.768;2023-07-20T14:55:00;24.8;72.3
49901;DHT22;35789;48.414;12.768;2023-07-20T15:00:00;24.9;69.6
49901;DHT22;35789;48.414;12.768;2023-07-20T15:05:00;24.9;68.5
49901;DHT22;35789;48.414;12.768;2023-07-20T15:10:00;25.0;67.5
49901;DHT22;35789;48.414;12.768;2023-07-20T15:15:02;24.9;68.1
49901;DHT22;35789;48.414;12.768;2023-07-20T15:20:00;24.9;69.8
49901;DHT22;35789;48.414;12.768;2023-07-20T15:25:00;24.9;67.6
49901;DHT22;35789;48.414;12.768;2023-07-20T15:30:00;24.7;68.2
49901;DHT22;35789;48.414;12.768;2023-07-20T15:35:00;24.6;67.3
49901;DHT22;35789;48.414;12.768;2023-07-20T15:40:00;24.8;68.0
49901;DHT22;35789;48.414;12.768;2023-07-20T15:45:00;24.7;70.7
49901;DHT22;35789;48.414;12.768;2023-07-20T15:50:00;24.7;69.0
49901;DHT22;35789;48.414;12.768;2023-07-20T15:55:00;24.7;68.4
49901;DHT22;35789;48.414;12.768;2023-07-20T16:00:00;24.6;69.6
49901;DHT22;35789;48.414;12.768;2023-07-20T16:05:00;24.5;69.5
49901;DHT22;35789;48.414;12.768;2023-07-20T16:10:00;24.6;68.7
49901;DHT22;35789;48.414;12.768;2023-07-20T16:15:00;24.7;68.0
49901;DHT22;35789;48.414;12.768;2023-07-20T16:20:00;24.6;68.7
49901;DHT22;35789;48.414;12.768;2023-07-20T16:25:00;24.6;65.9
49901;DHT22;35789;48.414;12.768;2023-07-20T16:30:00;24.4;66.9
49901;DHT22;35789;48.414;12.768;2023-07-20T16:35:00;24.4;67.6
49901;DHT22;35789;48.414;12.768;2023-07-20T16:40:00;24.3;69.2
49901;DHT22;35789;48.414;12.768;2023-07-20T16:45:00;24.3;68.9
49901;DHT22;35789;48.414;12.768;2023-07-20T16:50:00;24.2;69.6
49901;DHT22;35789;48.414;12.768;2023-07-20T16:55:00;24.2;69.2
49901;DHT22;35789;48.414;12.768;2023-07-20T17:00:00;24.2;68.9
49901;DHT22;35789;48.414;12.768;2023-07-20T17:05:00;24.1;70.4
49901;DHT22;35789;48.414;12.768;2023-07-20T17:10:00;24.0;68.7
49901;DHT22;35789;48.414;12.768;2023-07-20T17:15:00;23.9;69.8
49901;DHT22;35789;48.414;12.768;2023-07-20T17:20:00;23.7;71.8
49901;DHT22;35789;48.414;12.768;2023-07-20T17:25:00;23.6;71.2
49901;DHT22;35789;48.414;12.768;2023-07-20T17:30:00;23.3;71.9
49901;DHT22;35789;48.414;12.768;2023-07-20T17:35:00;23.2;73.9
49901;DHT22;35789;48.414;12.768;2023-07-20T17:40:06;23.0;73.7
49901;DHT22;35789;48.414;12.768;2023-07-20T17:45:00;22.8;76.1
49901;DHT22;35789;48.414;12.768;2023-07-20T17:50:00;22.7;74.5
49901;DHT22;35789;48.414;12.768;2023-07-20T17:55:00;22.5;75.5
49901;DHT22;35789;48.414;12.768;2023-07-20T18:00:00;22.6;71.0
49901;DHT22;35789;48.414;12.768;2023-07-20T18:05:00;22.6;73.2
49901;DHT22;35789;48.414;12.768;2023-07-20T18:10:00;22.4;74.9
49901;DHT22;35789;48.414;12.768;2023-07-20T18:15:00;22.3;75.1
49901;DHT22;35789;48.414;12.768;2023-07-20T18:20:00;22.2;78.2
49901;DHT22;35789;48.414;12.768;2023-07-20T18:25:00;22.0;76.0
49901;DHT22;35789;48.414;12.768;2023-07-20T18:30:00;21.8;79.0
49901;DHT22;35789;48.414;12.768;2023-07-20T18:35:00;21.5;82.2
49901;DHT22;35789;48.414;12.768;2023-07-20T18:40:01;21.3;82.3
49901;DHT22;35789;48.414;12.768;2023-07-20T18:45:00;21.1;82.3
49901;DHT22;35789;48.414;12.768;2023-07-20T18:50:00;20.9;83.5
49901;DHT22;35789;48.414;12.768;2023-07-20T18:55:00;20.7;84.7
49901;DHT22;35789;48.414;12.768;2023-07-20T19:00:00;20.5;85.6
49901;DHT22;35789;48.414;12.768;2023-07-20T19:05:00;20.3;87.9
49901;DHT22;35789;48.414;12.768;2023-07-20T19:10:01;20.1;87.8
49901;DHT22;35789;48.414;12.768;2023-07-20T19:15:00;19.9;88.7
49901;DHT22;35789;48.414;12.768;2023-07-20T19:20:00;19.8;88.5
49901;DHT22;35789;48.414;12.768;2023-07-20T19:25:00;19.6;89.0
49901;DHT22;35789;48.414;12.768;2023-07-20T19:30:00;19.5;90.1
49901;DHT22;35789;48.414;12.768;2023-07-20T19:35:00;19.3;90.6
49901;DHT22;35789;48.414;12.768;2023-07-20T19:40:00;19.2;90.5
49901;DHT22;35789;48.414;12.768;2023-07-20T19:45:00;19.1;90.2
49901;DHT22;35789;48.414;12.768;2023-07-20T19:50:00;18.9;90.8
49901;DHT22;35789;48.414;12.768;2023-07-20T19:55:00;18.9;91.1
49901;DHT22;35789;48.414;12.768;2023-07-20T20:00:00;18.8;91.0
49901;DHT22;35789;48.414;12.768;2023-07-20T20:05:00;18.7;91.8
49901;DHT22;35789;48.414;12.768;2023-07-20T20:10:00;18.7;92.3
49901;DHT22;35789;48.414;12.768;2023-07-20T20:15:00;18.6;92.6
49901;DHT22;35789;48.414;12.768;2023-07-20T20:20:00;18.6;93.1
49901;DHT22;35789;48.414;12.768;2023-07-20T20:25:00;18.5;92.2
49901;DHT22;35789;48.414;12.768;2023-07-20T20:30:00;18.6;92.1
49901;DHT22;35789;48.414;12.768;2023-07-20T20:35:00;18.6;91.9
49901;DHT22;35789;48.414;12.768;2023-07-20T20:40:00;18.6;92.1
49901;DHT22;35789;48.414;12.768;2023-07-20T20:45:00;18.5;93.0
49901;DHT22;35789;48.414;12.768;2023-07-20T20:50:00;18.4;93.3
49901;DHT22;35789;48.414;12.768;2023-07-20T20:55:00;18.3;94.4
49901;DHT22;35789;48.414;12.768;2023-07-20T21:00:00;18.3;93.8
49901;DHT22;35789;48.414;12.768;2023-07-20T21:05:00;18.2;94.0
49901;DHT22;35789;48.414;12.768;2023-07-20T21:10:00;18.1;94.1
49901;DHT22;35789;48.414;12.768;2023-07-20T21:15:00;18.0;93.9
49901;DHT22;35789;48.414;12.768;2023-07-20T21:20:00;18.0;95.0
49901;DHT22;35789;48.414;12.768;2023-07-20T21:25:00;17.8;95.0
49901;DHT22;35789;48.414;12.768;2023-07-20T21:30:00;17.7;94.3
49901;DHT22;35789;48.414;12.768;2023-07-20T21:35:00;17.6;94.5
49901;DHT22;35789;48.414;12.768;2023-07-20T21:40:00;17.6;94.9
49901;DHT22;35789;48.414;12.768;2023-07-20T21:45:00;17.4;94.6
49901;DHT22;35789;48.414;12.768;2023-07-20T21:50:00;17.4;95.2
49901;DHT22;35789;48.414;12.768;2023-07-20T21:55:00;17.3;95.3
49901;DHT22;35789;48.414;12.768;2023-07-20T22:00:00;17.2;95.5
49901;DHT22;35789;48.414;12.768;2023-07-20T22:05:00;17.1;95.8
49901;DHT22;35789;48.414;12.768;2023-07-20T22:10:00;17.0;95.8
49901;DHT22;35789;48.414;12.768;2023-07-20T22:15:00;17.0;96.1
49901;DHT22;35789;48.414;12.768;2023-07-20T22:20:00;16.9;96.1
49901;DHT22;35789;48.414;12.768;2023-07-20T22:25:00;16.9;96.2
49901;DHT22;35789;48.414;12.768;2023-07-20T22:30:00;16.9;96.3
49901;DHT22;35789;48.414;12.768;2023-07-20T22:35:00;16.9;96.5
49901;DHT22;35789;48.414;12.768;2023-07-20T22:40:00;16.8;96.4
49901;DHT22;35789;48.414;12.768;2023-07-20T22:45:00;16.8;96.7
49901;DHT22;35789;48.414;12.768;2023-07-20T22:50:00;16.7;96.8
49901;DHT22;35789;48.414;12.768;2023-07-20T22:55:00;16.6;96.1
49901;DHT22;35789;48.414;12.768;2023-07-20T23:00:00;16.6;96.8
49901;DHT22;35789;48.414;12.768;2023-07-20T23:05:01;16.5;96.7
49901;DHT22;35789;48.414;12.768;2023-07-20T23:10:00;16.4;97.0
49901;DHT22;35789;48.414;12.768;2023-07-20T23:15:00;16.3;97.3
49901;DHT22;35789;48.414;12.768;2023-07-20T23:20:00;16.3;97.5
49901;DHT22;35789;48.414;12.768;2023-07-20T23:25:00;16.3;97.0
49901;DHT22;35789;48.414;12.768;2023-07-20T23:30:00;16.3;96.9
49901;DHT22;35789;48.414;12.768;2023-07-20T23:35:00;16.2;97.7
49901;DHT22;35789;48.414;12.768;2023-07-20T23:40:00;16.1;97.0
49901;DHT22;35789;48.414;12.768;2023-07-20T23:45:00;16.1;96.9
49901;DHT22;35789;48.414;12.768;2023-07-20T23:50:00;16.0;97.7
49901;DHT22;35789;48.414;12.768;2023-07-20T23:55:00;16.0;97.4
